Terminal Aerodrome Forecast
Issued by NWS

Home | Current Version | Previous Version | Text Only | Print | Product List | Glossary On
Versions: 1 2 3 4 5 6 7 8 9 10 11 12 13 14 15 16 17 18
000
FTUS45 KBYZ 251137
TAFLVM
TAF
KLVM 251137Z 2512/2612 08009KT P6SM VCSH SCT008 BKN012
      TEMPO 2512/2514 1 1/2SM -SN BR BKN008
     FM251600 08008KT P6SM VCSH BKN025
     FM251800 30006KT P6SM SCT050=

USA.gov is the U.S. government's official web portal to all federal, state and local government web resources and services.